sensor_id;sensor_type;location;lat;lon;timestamp;temperature;humidity
12957;DHT22;6543;48.836;10.092;2024-01-15T00:00:52;-3.70;99.90
12957;DHT22;6543;48.836;10.092;2024-01-15T00:03:20;-3.60;99.90
12957;DHT22;6543;48.836;10.092;2024-01-15T00:05:47;-3.60;99.90
12957;DHT22;6543;48.836;10.092;2024-01-15T00:08:14;-3.70;99.90
12957;DHT22;6543;48.836;10.092;2024-01-15T00:10:41;-3.60;99.90
12957;DHT22;6543;48.836;10.092;2024-01-15T00:13:07;-3.60;99.90
12957;DHT22;6543;48.836;10.092;2024-01-15T00:15:34;-3.60;99.90
12957;DHT22;6543;48.836;10.092;2024-01-15T00:18:01;-3.60;99.90
12957;DHT22;6543;48.836;10.092;2024-01-15T00:20:29;-3.60;99.90
12957;DHT22;6543;48.836;10.092;2024-01-15T00:22:56;-3.60;99.90
12957;DHT22;6543;48.836;10.092;2024-01-15T00:25:23;-3.50;99.90
12957;DHT22;6543;48.836;10.092;2024-01-15T00:27:49;-3.50;99.90
12957;DHT22;6543;48.836;10.092;2024-01-15T00:30:16;-3.50;99.90
12957;DHT22;6543;48.836;10.092;2024-01-15T00:32:43;-3.50;99.90
12957;DHT22;6543;48.836;10.092;2024-01-15T00:35:10;-3.40;99.90
12957;DHT22;6543;48.836;10.092;2024-01-15T00:37:38;-3.40;99.90
12957;DHT22;6543;48.836;10.092;2024-01-15T00:40:06;-3.40;99.90
12957;DHT22;6543;48.836;10.092;2024-01-15T00:42:33;-3.30;99.90
12957;DHT22;6543;48.836;10.092;2024-01-15T00:45:00;-3.40;99.90
12957;DHT22;6543;48.836;10.092;2024-01-15T00:47:27;-3.40;99.90
12957;DHT22;6543;48.836;10.092;2024-01-15T00:49:54;-3.40;99.90
12957;DHT22;6543;48.836;10.092;2024-01-15T00:52:20;-3.40;99.90
12957;DHT22;6543;48.836;10.092;2024-01-15T00:54:48;-3.40;99.90
12957;DHT22;6543;48.836;10.092;2024-01-15T00:57:15;-3.30;99.90
12957;DHT22;6543;48.836;10.092;2024-01-15T00:59:44;-3.30;99.90
12957;DHT22;6543;48.836;10.092;2024-01-15T01:02:11;-3.40;99.90
12957;DHT22;6543;48.836;10.092;2024-01-15T01:04:38;-3.40;99.90
12957;DHT22;6543;48.836;10.092;2024-01-15T01:07:04;-3.40;99.90
12957;DHT22;6543;48.836;10.092;2024-01-15T01:09:31;-3.40;99.90
12957;DHT22;6543;48.836;10.092;2024-01-15T01:11:59;-3.30;99.90
12957;DHT22;6543;48.836;10.092;2024-01-15T01:14:26;-3.30;99.90
12957;DHT22;6543;48.836;10.092;2024-01-15T01:16:53;-3.30;99.90
12957;DHT22;6543;48.836;10.092;2024-01-15T01:19:19;-3.30;99.90
12957;DHT22;6543;48.836;10.092;2024-01-15T01:21:46;-3.20;99.90
12957;DHT22;6543;48.836;10.092;2024-01-15T01:24:13;-3.20;99.90
12957;DHT22;6543;48.836;10.092;2024-01-15T01:26:40;-3.20;99.90
12957;DHT22;6543;48.836;10.092;2024-01-15T01:29:08;-3.20;99.90
12957;DHT22;6543;48.836;10.092;2024-01-15T01:31:35;-3.20;99.90
12957;DHT22;6543;48.836;10.092;2024-01-15T01:34:02;-3.10;99.90
12957;DHT22;6543;48.836;10.092;2024-01-15T01:36:29;-3.10;99.90
12957;DHT22;6543;48.836;10.092;2024-01-15T01:38:57;-3.20;99.90
12957;DHT22;6543;48.836;10.092;2024-01-15T01:41:24;-3.10;99.90
12957;DHT22;6543;48.836;10.092;2024-01-15T01:43:51;-3.00;99.90
12957;DHT22;6543;48.836;10.092;2024-01-15T01:46:18;-3.00;99.90
12957;DHT22;6543;48.836;10.092;2024-01-15T01:48:45;-2.90;99.90
12957;DHT22;6543;48.836;10.092;2024-01-15T01:51:12;-2.90;99.90
12957;DHT22;6543;48.836;10.092;2024-01-15T01:53:39;-2.90;99.90
12957;DHT22;6543;48.836;10.092;2024-01-15T01:56:07;-2.80;99.90
12957;DHT22;6543;48.836;10.092;2024-01-15T01:58:34;-2.80;99.90
12957;DHT22;6543;48.836;10.092;2024-01-15T02:01:01;-2.70;99.90
12957;DHT22;6543;48.836;10.092;2024-01-15T02:03:30;-2.90;99.90
12957;DHT22;6543;48.836;10.092;2024-01-15T02:05:57;-2.80;99.90
12957;DHT22;6543;48.836;10.092;2024-01-15T02:08:25;-2.80;99.90
12957;DHT22;6543;48.836;10.092;2024-01-15T02:10:52;-2.80;99.90
12957;DHT22;6543;48.836;10.092;2024-01-15T02:13:20;-2.70;99.90
12957;DHT22;6543;48.836;10.092;2024-01-15T02:15:47;-2.70;99.90
12957;DHT22;6543;48.836;10.092;2024-01-15T02:18:13;-2.60;99.90
12957;DHT22;6543;48.836;10.092;2024-01-15T02:20:41;-2.70;99.90
12957;DHT22;6543;48.836;10.092;2024-01-15T02:23:12;-2.60;99.90
12957;DHT22;6543;48.836;10.092;2024-01-15T02:25:41;-2.50;99.90
12957;DHT22;6543;48.836;10.092;2024-01-15T02:28:10;-2.40;99.90
12957;DHT22;6543;48.836;10.092;2024-01-15T02:30:38;-2.40;99.90
12957;DHT22;6543;48.836;10.092;2024-01-15T02:33:05;-2.30;99.90
12957;DHT22;6543;48.836;10.092;2024-01-15T02:35:32;-2.20;99.90
12957;DHT22;6543;48.836;10.092;2024-01-15T02:37:59;-2.20;99.90
12957;DHT22;6543;48.836;10.092;2024-01-15T02:40:27;-2.10;99.90
12957;DHT22;6543;48.836;10.092;2024-01-15T02:42:54;-2.00;99.90
12957;DHT22;6543;48.836;10.092;2024-01-15T02:45:21;-1.90;99.90
12957;DHT22;6543;48.836;10.092;2024-01-15T02:47:48;-1.90;99.90
12957;DHT22;6543;48.836;10.092;2024-01-15T02:50:15;-1.80;99.90
12957;DHT22;6543;48.836;10.092;2024-01-15T02:52:42;-1.80;99.90
12957;DHT22;6543;48.836;10.092;2024-01-15T02:55:09;-1.70;99.90
12957;DHT22;6543;48.836;10.092;2024-01-15T02:57:37;-1.70;99.90
12957;DHT22;6543;48.836;10.092;2024-01-15T03:00:05;-1.60;99.90
12957;DHT22;6543;48.836;10.092;2024-01-15T03:02:32;-1.60;99.90
12957;DHT22;6543;48.836;10.092;2024-01-15T03:04:59;-1.50;99.90
12957;DHT22;6543;48.836;10.092;2024-01-15T03:07:27;-1.50;99.90
12957;DHT22;6543;48.836;10.092;2024-01-15T03:09:54;-1.50;99.90
12957;DHT22;6543;48.836;10.092;2024-01-15T03:12:21;-1.50;99.90
12957;DHT22;6543;48.836;10.092;2024-01-15T03:14:49;-1.40;99.90
12957;DHT22;6543;48.836;10.092;2024-01-15T03:17:16;-1.50;99.90
12957;DHT22;6543;48.836;10.092;2024-01-15T03:19:43;-1.40;99.90
12957;DHT22;6543;48.836;10.092;2024-01-15T03:22:09;-1.40;99.90
12957;DHT22;6543;48.836;10.092;2024-01-15T03:24:36;-1.40;99.90
12957;DHT22;6543;48.836;10.092;2024-01-15T03:27:03;-1.40;99.90
12957;DHT22;6543;48.836;10.092;2024-01-15T03:29:30;-1.40;99.90
12957;DHT22;6543;48.836;10.092;2024-01-15T03:31:58;-1.40;99.90
12957;DHT22;6543;48.836;10.092;2024-01-15T03:34:25;-1.40;99.90
12957;DHT22;6543;48.836;10.092;2024-01-15T03:36:52;-1.40;99.90
12957;DHT22;6543;48.836;10.092;2024-01-15T03:39:18;-1.40;99.90
12957;DHT22;6543;48.836;10.092;2024-01-15T03:41:45;-1.30;99.90
12957;DHT22;6543;48.836;10.092;2024-01-15T03:44:12;-1.30;99.90
12957;DHT22;6543;48.836;10.092;2024-01-15T03:46:39;-1.30;99.90
12957;DHT22;6543;48.836;10.092;2024-01-15T03:49:07;-1.40;99.90
12957;DHT22;6543;48.836;10.092;2024-01-15T03:51:33;-1.40;99.90
12957;DHT22;6543;48.836;10.092;2024-01-15T03:54:00;-1.30;99.90
12957;DHT22;6543;48.836;10.092;2024-01-15T03:56:27;-1.30;99.90
12957;DHT22;6543;48.836;10.092;2024-01-15T03:58:54;-1.30;99.90
12957;DHT22;6543;48.836;10.092;2024-01-15T04:01:20;-1.30;99.90
12957;DHT22;6543;48.836;10.092;2024-01-15T04:03:47;-1.20;99.90
12957;DHT22;6543;48.836;10.092;2024-01-15T04:06:15;-1.30;99.90
12957;DHT22;6543;48.836;10.092;2024-01-15T04:08:42;-1.30;99.90
12957;DHT22;6543;48.836;10.092;2024-01-15T04:11:09;-1.30;99.90
12957;DHT22;6543;48.836;10.092;2024-01-15T04:13:36;-1.30;99.90
12957;DHT22;6543;48.836;10.092;2024-01-15T04:16:03;-1.20;99.90
12957;DHT22;6543;48.836;10.092;2024-01-15T04:18:30;-1.30;99.90
12957;DHT22;6543;48.836;10.092;2024-01-15T04:20:57;0.60;99.90
12957;DHT22;6543;48.836;10.092;2024-01-15T04:23:26;0.20;99.90
12957;DHT22;6543;48.836;10.092;2024-01-15T04:25:53;1.40;99.90
12957;DHT22;6543;48.836;10.092;2024-01-15T04:28:20;-2.20;99.90
12957;DHT22;6543;48.836;10.092;2024-01-15T04:30:47;-2.10;99.90
12957;DHT22;6543;48.836;10.092;2024-01-15T04:33:14;0.70;99.90
12957;DHT22;6543;48.836;10.092;2024-01-15T04:35:42;1.20;99.90
12957;DHT22;6543;48.836;10.092;2024-01-15T04:38:09;1.00;99.90
12957;DHT22;6543;48.836;10.092;2024-01-15T04:40:37;1.30;99.90
12957;DHT22;6543;48.836;10.092;2024-01-15T04:43:05;-0.30;99.90
12957;DHT22;6543;48.836;10.092;2024-01-15T04:45:32;0.00;99.90
12957;DHT22;6543;48.836;10.092;2024-01-15T04:47:59;-1.00;99.90
12957;DHT22;6543;48.836;10.092;2024-01-15T04:50:26;-0.90;99.90
12957;DHT22;6543;48.836;10.092;2024-01-15T04:52:53;-0.80;99.90
12957;DHT22;6543;48.836;10.092;2024-01-15T04:55:21;-0.90;99.90
12957;DHT22;6543;48.836;10.092;2024-01-15T04:57:50;-0.50;99.90
12957;DHT22;6543;48.836;10.092;2024-01-15T05:00:17;-0.80;99.90
12957;DHT22;6543;48.836;10.092;2024-01-15T05:02:45;-2.20;99.90
12957;DHT22;6543;48.836;10.092;2024-01-15T05:05:12;0.80;99.90
12957;DHT22;6543;48.836;10.092;2024-01-15T05:07:39;1.00;99.90
12957;DHT22;6543;48.836;10.092;2024-01-15T05:10:07;-1.30;99.90
12957;DHT22;6543;48.836;10.092;2024-01-15T05:12:34;-1.30;99.90
12957;DHT22;6543;48.836;10.092;2024-01-15T05:15:07;-0.10;99.90
12957;DHT22;6543;48.836;10.092;2024-01-15T05:17:35;0.00;99.90
12957;DHT22;6543;48.836;10.092;2024-01-15T05:20:03;0.70;99.90
12957;DHT22;6543;48.836;10.092;2024-01-15T05:22:33;-0.90;99.90
12957;DHT22;6543;48.836;10.092;2024-01-15T05:25:00;0.60;99.90
12957;DHT22;6543;48.836;10.092;2024-01-15T05:27:27;1.40;99.90
12957;DHT22;6543;48.836;10.092;2024-01-15T05:29:54;1.50;99.90
12957;DHT22;6543;48.836;10.092;2024-01-15T05:32:23;-2.20;99.90
12957;DHT22;6543;48.836;10.092;2024-01-15T05:34:51;1.40;99.90
12957;DHT22;6543;48.836;10.092;2024-01-15T05:37:18;1.60;99.90
12957;DHT22;6543;48.836;10.092;2024-01-15T05:39:45;-2.10;99.90
12957;DHT22;6543;48.836;10.092;2024-01-15T05:42:13;-0.90;99.90
12957;DHT22;6543;48.836;10.092;2024-01-15T05:44:40;0.70;99.90
12957;DHT22;6543;48.836;10.092;2024-01-15T05:47:09;0.20;99.90
12957;DHT22;6543;48.836;10.092;2024-01-15T05:49:37;-0.60;99.90
12957;DHT22;6543;48.836;10.092;2024-01-15T05:52:07;0.60;99.90
12957;DHT22;6543;48.836;10.092;2024-01-15T05:54:34;0.10;99.90
12957;DHT22;6543;48.836;10.092;2024-01-15T05:57:01;-0.10;99.90
12957;DHT22;6543;48.836;10.092;2024-01-15T05:59:30;-0.80;99.90
12957;DHT22;6543;48.836;10.092;2024-01-15T06:01:59;-0.30;99.90
12957;DHT22;6543;48.836;10.092;2024-01-15T06:04:27;-1.00;99.90
12957;DHT22;6543;48.836;10.092;2024-01-15T06:06:56;-1.80;99.90
12957;DHT22;6543;48.836;10.092;2024-01-15T06:09:24;-0.90;99.90
12957;DHT22;6543;48.836;10.092;2024-01-15T06:11:51;-1.10;99.90
12957;DHT22;6543;48.836;10.092;2024-01-15T06:14:19;-0.90;99.90
12957;DHT22;6543;48.836;10.092;2024-01-15T06:16:46;0.50;99.90
12957;DHT22;6543;48.836;10.092;2024-01-15T06:19:13;2.00;99.90
12957;DHT22;6543;48.836;10.092;2024-01-15T06:21:40;-2.90;99.90
12957;DHT22;6543;48.836;10.092;2024-01-15T06:24:11;1.50;99.90
12957;DHT22;6543;48.836;10.092;2024-01-15T06:26:39;-1.00;99.90
12957;DHT22;6543;48.836;10.092;2024-01-15T06:29:07;1.30;99.90
12957;DHT22;6543;48.836;10.092;2024-01-15T06:31:36;1.40;99.90
12957;DHT22;6543;48.836;10.092;2024-01-15T06:34:04;0.70;99.90
12957;DHT22;6543;48.836;10.092;2024-01-15T06:36:31;-0.70;99.90
12957;DHT22;6543;48.836;10.092;2024-01-15T06:38:59;-0.50;99.90
12957;DHT22;6543;48.836;10.092;2024-01-15T06:41:27;-0.90;99.90
12957;DHT22;6543;48.836;10.092;2024-01-15T06:43:54;1.00;99.90
12957;DHT22;6543;48.836;10.092;2024-01-15T06:46:21;-0.90;99.90
12957;DHT22;6543;48.836;10.092;2024-01-15T06:48:48;-0.90;99.90
12957;DHT22;6543;48.836;10.092;2024-01-15T06:51:16;1.50;99.90
12957;DHT22;6543;48.836;10.092;2024-01-15T06:53:43;-2.60;99.90
12957;DHT22;6543;48.836;10.092;2024-01-15T06:56:10;-0.80;99.90
12957;DHT22;6543;48.836;10.092;2024-01-15T06:58:38;-0.80;99.90
12957;DHT22;6543;48.836;10.092;2024-01-15T07:01:05;1.10;99.90
12957;DHT22;6543;48.836;10.092;2024-01-15T07:03:33;-0.80;99.90
12957;DHT22;6543;48.836;10.092;2024-01-15T07:06:07;2.20;99.90
12957;DHT22;6543;48.836;10.092;2024-01-15T07:08:34;-0.60;99.90
12957;DHT22;6543;48.836;10.092;2024-01-15T07:11:03;-1.00;99.90
12957;DHT22;6543;48.836;10.092;2024-01-15T07:13:30;-0.70;99.90
12957;DHT22;6543;48.836;10.092;2024-01-15T07:15:59;-0.80;99.90
12957;DHT22;6543;48.836;10.092;2024-01-15T07:18:26;-0.70;99.90
12957;DHT22;6543;48.836;10.092;2024-01-15T07:20:52;-0.90;99.90
12957;DHT22;6543;48.836;10.092;2024-01-15T07:23:19;-0.70;99.90
12957;DHT22;6543;48.836;10.092;2024-01-15T07:25:46;2.20;99.90
12957;DHT22;6543;48.836;10.092;2024-01-15T07:28:13;-1.10;99.90
12957;DHT22;6543;48.836;10.092;2024-01-15T07:30:40;-0.60;99.90
12957;DHT22;6543;48.836;10.092;2024-01-15T07:33:08;-0.50;99.90
12957;DHT22;6543;48.836;10.092;2024-01-15T07:35:36;-0.60;99.90
12957;DHT22;6543;48.836;10.092;2024-01-15T07:38:04;-0.60;99.90
12957;DHT22;6543;48.836;10.092;2024-01-15T07:40:31;1.70;99.90
12957;DHT22;6543;48.836;10.092;2024-01-15T07:42:57;-0.60;99.90
12957;DHT22;6543;48.836;10.092;2024-01-15T07:45:24;-0.60;99.90
12957;DHT22;6543;48.836;10.092;2024-01-15T07:47:51;1.10;99.90
12957;DHT22;6543;48.836;10.092;2024-01-15T07:50:19;-0.50;99.90
12957;DHT22;6543;48.836;10.092;2024-01-15T07:52:46;-0.60;99.90
12957;DHT22;6543;48.836;10.092;2024-01-15T07:55:14;-0.60;99.90
12957;DHT22;6543;48.836;10.092;2024-01-15T07:57:44;-0.50;99.90
12957;DHT22;6543;48.836;10.092;2024-01-15T08:00:12;-0.50;99.90
12957;DHT22;6543;48.836;10.092;2024-01-15T08:02:39;-0.50;99.90
12957;DHT22;6543;48.836;10.092;2024-01-15T08:05:06;-0.50;99.90
12957;DHT22;6543;48.836;10.092;2024-01-15T08:07:36;-0.50;99.90
12957;DHT22;6543;48.836;10.092;2024-01-15T08:10:03;-0.50;99.90
12957;DHT22;6543;48.836;10.092;2024-01-15T08:15:27;-0.40;99.90
12957;DHT22;6543;48.836;10.092;2024-01-15T08:17:55;0.50;99.90
12957;DHT22;6543;48.836;10.092;2024-01-15T08:20:21;-0.40;99.90
12957;DHT22;6543;48.836;10.092;2024-01-15T08:22:50;-2.00;99.90
12957;DHT22;6543;48.836;10.092;2024-01-15T08:25:18;-0.50;99.90
12957;DHT22;6543;48.836;10.092;2024-01-15T08:30:18;-0.40;99.90
12957;DHT22;6543;48.836;10.092;2024-01-15T08:32:46;0.80;99.90
12957;DHT22;6543;48.836;10.092;2024-01-15T08:35:19;-0.30;99.90
12957;DHT22;6543;48.836;10.092;2024-01-15T08:37:52;-2.50;99.90
12957;DHT22;6543;48.836;10.092;2024-01-15T08:40:24;-1.20;99.90
12957;DHT22;6543;48.836;10.092;2024-01-15T08:42:57;1.40;99.90
12957;DHT22;6543;48.836;10.092;2024-01-15T08:45:24;1.60;99.90
12957;DHT22;6543;48.836;10.092;2024-01-15T08:47:51;-0.40;99.90
12957;DHT22;6543;48.836;10.092;2024-01-15T08:50:18;-0.30;99.90
12957;DHT22;6543;48.836;10.092;2024-01-15T08:52:45;-0.30;99.90
12957;DHT22;6543;48.836;10.092;2024-01-15T08:55:16;2.10;99.90
12957;DHT22;6543;48.836;10.092;2024-01-15T08:57:43;-0.20;99.90
12957;DHT22;6543;48.836;10.092;2024-01-15T09:00:12;1.80;99.90
12957;DHT22;6543;48.836;10.092;2024-01-15T09:02:59;-0.10;99.90
12957;DHT22;6543;48.836;10.092;2024-01-15T09:05:54;1.70;99.90
12957;DHT22;6543;48.836;10.092;2024-01-15T09:08:46;-0.50;99.90
12957;DHT22;6543;48.836;10.092;2024-01-15T09:11:26;-0.30;99.90
12957;DHT22;6543;48.836;10.092;2024-01-15T09:13:53;0.50;99.90
12957;DHT22;6543;48.836;10.092;2024-01-15T09:16:23;2.10;99.90
12957;DHT22;6543;48.836;10.092;2024-01-15T09:19:31;0.20;99.90
12957;DHT22;6543;48.836;10.092;2024-01-15T09:21:58;0.00;99.90
12957;DHT22;6543;48.836;10.092;2024-01-15T09:24:25;1.60;99.90
12957;DHT22;6543;48.836;10.092;2024-01-15T09:26:53;0.10;99.90
12957;DHT22;6543;48.836;10.092;2024-01-15T09:29:20;0.20;99.90
12957;DHT22;6543;48.836;10.092;2024-01-15T09:31:49;0.10;99.90
12957;DHT22;6543;48.836;10.092;2024-01-15T09:34:17;0.20;99.90
12957;DHT22;6543;48.836;10.092;2024-01-15T09:36:44;0.10;99.90
12957;DHT22;6543;48.836;10.092;2024-01-15T09:39:13;0.20;99.90
12957;DHT22;6543;48.836;10.092;2024-01-15T09:41:41;1.00;99.90
12957;DHT22;6543;48.836;10.092;2024-01-15T09:44:10;1.90;99.90
12957;DHT22;6543;48.836;10.092;2024-01-15T09:46:39;0.40;99.90
12957;DHT22;6543;48.836;10.092;2024-01-15T09:49:08;0.40;99.90
12957;DHT22;6543;48.836;10.092;2024-01-15T09:51:35;0.50;99.90
12957;DHT22;6543;48.836;10.092;2024-01-15T09:54:03;0.60;99.90
12957;DHT22;6543;48.836;10.092;2024-01-15T09:56:31;0.70;99.90
12957;DHT22;6543;48.836;10.092;2024-01-15T09:58:58;0.60;99.90
12957;DHT22;6543;48.836;10.092;2024-01-15T10:01:28;1.90;99.90
12957;DHT22;6543;48.836;10.092;2024-01-15T10:03:55;0.80;99.90
12957;DHT22;6543;48.836;10.092;2024-01-15T10:06:22;1.00;99.90
12957;DHT22;6543;48.836;10.092;2024-01-15T10:08:52;2.90;99.90
12957;DHT22;6543;48.836;10.092;2024-01-15T10:11:19;-0.70;99.90
12957;DHT22;6543;48.836;10.092;2024-01-15T10:13:47;0.90;99.90
12957;DHT22;6543;48.836;10.092;2024-01-15T10:16:16;0.90;99.90
12957;DHT22;6543;48.836;10.092;2024-01-15T10:18:44;0.80;99.90
12957;DHT22;6543;48.836;10.092;2024-01-15T10:21:11;0.80;99.90
12957;DHT22;6543;48.836;10.092;2024-01-15T10:23:42;2.50;99.90
12957;DHT22;6543;48.836;10.092;2024-01-15T10:26:10;2.70;99.90
12957;DHT22;6543;48.836;10.092;2024-01-15T10:28:37;1.30;99.90
12957;DHT22;6543;48.836;10.092;2024-01-15T10:31:05;2.00;99.90
12957;DHT22;6543;48.836;10.092;2024-01-15T10:33:32;2.50;99.90
12957;DHT22;6543;48.836;10.092;2024-01-15T10:36:01;1.60;99.90
12957;DHT22;6543;48.836;10.092;2024-01-15T10:38:29;0.70;99.90
12957;DHT22;6543;48.836;10.092;2024-01-15T10:40:56;0.90;99.90
12957;DHT22;6543;48.836;10.092;2024-01-15T10:43:24;1.00;99.90
12957;DHT22;6543;48.836;10.092;2024-01-15T10:45:51;1.00;99.90
12957;DHT22;6543;48.836;10.092;2024-01-15T10:48:19;0.80;99.90
12957;DHT22;6543;48.836;10.092;2024-01-15T10:50:47;0.80;99.90
12957;DHT22;6543;48.836;10.092;2024-01-15T10:56:05;0.70;99.90
12957;DHT22;6543;48.836;10.092;2024-01-15T10:58:33;0.80;99.90
12957;DHT22;6543;48.836;10.092;2024-01-15T11:01:01;0.80;99.90
12957;DHT22;6543;48.836;10.092;2024-01-15T11:03:28;0.90;99.90
12957;DHT22;6543;48.836;10.092;2024-01-15T11:05:55;2.90;99.90
12957;DHT22;6543;48.836;10.092;2024-01-15T11:08:24;0.90;99.90
12957;DHT22;6543;48.836;10.092;2024-01-15T11:10:52;0.90;99.90
12957;DHT22;6543;48.836;10.092;2024-01-15T11:13:21;1.00;99.90
12957;DHT22;6543;48.836;10.092;2024-01-15T11:15:58;1.10;99.90
12957;DHT22;6543;48.836;10.092;2024-01-15T11:18:27;1.10;99.90
12957;DHT22;6543;48.836;10.092;2024-01-15T11:21:22;1.20;99.90
12957;DHT22;6543;48.836;10.092;2024-01-15T11:23:54;1.10;99.90
12957;DHT22;6543;48.836;10.092;2024-01-15T11:26:35;2.30;99.90
12957;DHT22;6543;48.836;10.092;2024-01-15T11:29:03;2.60;99.90
12957;DHT22;6543;48.836;10.092;2024-01-15T11:31:58;1.00;99.90
12957;DHT22;6543;48.836;10.092;2024-01-15T11:34:55;1.00;99.90
12957;DHT22;6543;48.836;10.092;2024-01-15T11:37:29;1.30;99.90
12957;DHT22;6543;48.836;10.092;2024-01-15T11:40:22;3.40;99.90
12957;DHT22;6543;48.836;10.092;2024-01-15T11:42:49;1.20;99.90
12957;DHT22;6543;48.836;10.092;2024-01-15T11:45:21;2.90;99.90
12957;DHT22;6543;48.836;10.092;2024-01-15T11:48:09;0.80;99.90
12957;DHT22;6543;48.836;10.092;2024-01-15T11:50:40;1.00;99.90
12957;DHT22;6543;48.836;10.092;2024-01-15T11:53:17;2.80;99.90
12957;DHT22;6543;48.836;10.092;2024-01-15T11:55:51;0.40;99.90
12957;DHT22;6543;48.836;10.092;2024-01-15T11:58:20;0.20;99.90
12957;DHT22;6543;48.836;10.092;2024-01-15T12:00:48;0.30;99.90
12957;DHT22;6543;48.836;10.092;2024-01-15T12:03:15;0.30;99.90
12957;DHT22;6543;48.836;10.092;2024-01-15T12:05:49;1.50;99.90
12957;DHT22;6543;48.836;10.092;2024-01-15T12:08:23;-0.20;99.90
12957;DHT22;6543;48.836;10.092;2024-01-15T12:10:52;0.70;99.90
12957;DHT22;6543;48.836;10.092;2024-01-15T12:13:20;0.00;99.90
12957;DHT22;6543;48.836;10.092;2024-01-15T12:15:48;1.90;99.90
12957;DHT22;6543;48.836;10.092;2024-01-15T12:18:16;-0.10;99.90
12957;DHT22;6543;48.836;10.092;2024-01-15T12:20:45;0.30;99.90
12957;DHT22;6543;48.836;10.092;2024-01-15T12:23:15;-0.10;99.90
12957;DHT22;6543;48.836;10.092;2024-01-15T12:25:42;-0.20;99.90
12957;DHT22;6543;48.836;10.092;2024-01-15T12:28:11;1.10;99.90
12957;DHT22;6543;48.836;10.092;2024-01-15T12:30:39;0.50;99.90
12957;DHT22;6543;48.836;10.092;2024-01-15T12:33:06;1.20;99.90
12957;DHT22;6543;48.836;10.092;2024-01-15T12:35:34;1.00;99.90
12957;DHT22;6543;48.836;10.092;2024-01-15T12:38:02;0.00;99.90
12957;DHT22;6543;48.836;10.092;2024-01-15T12:40:31;-0.10;99.90
12957;DHT22;6543;48.836;10.092;2024-01-15T12:42:59;-0.10;99.90
12957;DHT22;6543;48.836;10.092;2024-01-15T12:45:27;-0.10;99.90
12957;DHT22;6543;48.836;10.092;2024-01-15T12:47:54;-0.10;99.90
12957;DHT22;6543;48.836;10.092;2024-01-15T12:50:24;1.00;99.90
12957;DHT22;6543;48.836;10.092;2024-01-15T12:52:52;-0.10;99.90
12957;DHT22;6543;48.836;10.092;2024-01-15T12:55:25;0.00;99.90
12957;DHT22;6543;48.836;10.092;2024-01-15T12:57:52;1.30;99.90
12957;DHT22;6543;48.836;10.092;2024-01-15T13:00:19;0.00;99.90
12957;DHT22;6543;48.836;10.092;2024-01-15T13:03:03;-0.10;99.90
12957;DHT22;6543;48.836;10.092;2024-01-15T13:05:31;-0.30;99.90
12957;DHT22;6543;48.836;10.092;2024-01-15T13:07:59;-0.40;99.90
12957;DHT22;6543;48.836;10.092;2024-01-15T13:10:26;-0.30;99.90
12957;DHT22;6543;48.836;10.092;2024-01-15T13:12:56;-0.30;99.90
12957;DHT22;6543;48.836;10.092;2024-01-15T13:15:23;0.40;99.90
12957;DHT22;6543;48.836;10.092;2024-01-15T13:18:00;1.00;99.90
12957;DHT22;6543;48.836;10.092;2024-01-15T13:20:48;-0.30;99.90
12957;DHT22;6543;48.836;10.092;2024-01-15T13:23:24;-0.20;99.90
12957;DHT22;6543;48.836;10.092;2024-01-15T13:26:08;0.10;99.90
12957;DHT22;6543;48.836;10.092;2024-01-15T13:28:45;0.20;99.90
12957;DHT22;6543;48.836;10.092;2024-01-15T13:31:14;-2.10;99.90
12957;DHT22;6543;48.836;10.092;2024-01-15T13:33:41;2.10;99.90
12957;DHT22;6543;48.836;10.092;2024-01-15T13:36:09;0.00;99.90
12957;DHT22;6543;48.836;10.092;2024-01-15T13:38:36;-0.20;99.90
12957;DHT22;6543;48.836;10.092;2024-01-15T13:41:04;2.10;99.90
12957;DHT22;6543;48.836;10.092;2024-01-15T13:43:31;-0.80;99.90
12957;DHT22;6543;48.836;10.092;2024-01-15T13:45:58;-0.40;99.90
12957;DHT22;6543;48.836;10.092;2024-01-15T13:48:26;-0.40;99.90
12957;DHT22;6543;48.836;10.092;2024-01-15T13:50:53;-0.40;99.90
12957;DHT22;6543;48.836;10.092;2024-01-15T13:53:21;-0.10;99.90
12957;DHT22;6543;48.836;10.092;2024-01-15T13:55:48;-0.40;99.90
12957;DHT22;6543;48.836;10.092;2024-01-15T13:58:15;-0.40;99.90
12957;DHT22;6543;48.836;10.092;2024-01-15T14:00:45;-0.40;99.90
12957;DHT22;6543;48.836;10.092;2024-01-15T14:03:13;-0.30;99.90
12957;DHT22;6543;48.836;10.092;2024-01-15T14:05:40;-0.20;99.90
12957;DHT22;6543;48.836;10.092;2024-01-15T14:08:07;1.70;99.90
12957;DHT22;6543;48.836;10.092;2024-01-15T14:10:36;-0.30;99.90
12957;DHT22;6543;48.836;10.092;2024-01-15T14:13:04;-0.10;99.90
12957;DHT22;6543;48.836;10.092;2024-01-15T14:15:30;-0.30;99.90
12957;DHT22;6543;48.836;10.092;2024-01-15T14:17:57;1.20;99.90
12957;DHT22;6543;48.836;10.092;2024-01-15T14:20:25;1.50;99.90
12957;DHT22;6543;48.836;10.092;2024-01-15T14:22:52;-0.30;99.90
12957;DHT22;6543;48.836;10.092;2024-01-15T14:25:19;0.60;99.90
12957;DHT22;6543;48.836;10.092;2024-01-15T14:27:48;-0.30;99.90
12957;DHT22;6543;48.836;10.092;2024-01-15T14:30:15;-0.10;99.90
12957;DHT22;6543;48.836;10.092;2024-01-15T14:32:42;-0.20;99.90
12957;DHT22;6543;48.836;10.092;2024-01-15T14:35:10;-0.20;99.90
12957;DHT22;6543;48.836;10.092;2024-01-15T14:37:39;-0.20;99.90
12957;DHT22;6543;48.836;10.092;2024-01-15T14:42:38;-0.10;99.90
12957;DHT22;6543;48.836;10.092;2024-01-15T14:45:08;-0.20;99.90
12957;DHT22;6543;48.836;10.092;2024-01-15T14:47:37;-0.20;99.90
12957;DHT22;6543;48.836;10.092;2024-01-15T14:50:06;2.20;99.90
12957;DHT22;6543;48.836;10.092;2024-01-15T14:52:33;-0.10;99.90
12957;DHT22;6543;48.836;10.092;2024-01-15T14:55:00;2.00;99.90
12957;DHT22;6543;48.836;10.092;2024-01-15T14:57:27;-0.20;99.90
12957;DHT22;6543;48.836;10.092;2024-01-15T14:59:54;1.00;99.90
12957;DHT22;6543;48.836;10.092;2024-01-15T15:02:23;-0.20;99.90
12957;DHT22;6543;48.836;10.092;2024-01-15T15:04:55;-0.20;99.90
12957;DHT22;6543;48.836;10.092;2024-01-15T15:07:22;0.80;99.90
12957;DHT22;6543;48.836;10.092;2024-01-15T15:09:49;-0.30;99.90
12957;DHT22;6543;48.836;10.092;2024-01-15T15:12:17;-0.30;99.90
12957;DHT22;6543;48.836;10.092;2024-01-15T15:14:44;-0.30;99.90
12957;DHT22;6543;48.836;10.092;2024-01-15T15:17:11;0.40;99.90
12957;DHT22;6543;48.836;10.092;2024-01-15T15:19:40;1.80;99.90
12957;DHT22;6543;48.836;10.092;2024-01-15T15:22:07;1.80;99.90
12957;DHT22;6543;48.836;10.092;2024-01-15T15:24:36;-0.40;99.90
12957;DHT22;6543;48.836;10.092;2024-01-15T15:27:03;-0.30;99.90
12957;DHT22;6543;48.836;10.092;2024-01-15T15:29:31;-0.40;99.90
12957;DHT22;6543;48.836;10.092;2024-01-15T15:31:58;-0.40;99.90
12957;DHT22;6543;48.836;10.092;2024-01-15T15:34:25;-0.60;99.90
12957;DHT22;6543;48.836;10.092;2024-01-15T15:36:53;-0.50;99.90
12957;DHT22;6543;48.836;10.092;2024-01-15T15:39:20;-0.40;99.90
12957;DHT22;6543;48.836;10.092;2024-01-15T15:41:47;-0.50;99.90
12957;DHT22;6543;48.836;10.092;2024-01-15T15:44:14;-0.50;99.90
12957;DHT22;6543;48.836;10.092;2024-01-15T15:46:42;-0.50;99.90
12957;DHT22;6543;48.836;10.092;2024-01-15T15:49:09;-0.40;99.90
12957;DHT22;6543;48.836;10.092;2024-01-15T15:51:36;-0.50;99.90
12957;DHT22;6543;48.836;10.092;2024-01-15T15:54:04;-0.20;99.90
12957;DHT22;6543;48.836;10.092;2024-01-15T15:56:32;0.30;99.90